• Join FlightAware (Why Join?)
  • Login
  • US Flag 
08:42PM EDT


 

Airport Tracker/Info


-or-


 

Live Flight TrackerFlight Track Log ✈ SKW5631 ✈ 27-Sep-2013 ✈ KSFO - KBUR

Flight Track Log - Related Links

Times and Time Zones

All times are in EDT time to prevent confusion due to time zone crossing. See the SKW5631 flight status page for this flight to view local times or setup timezone preferences in your user account.

Time Position Orientation Groundspeed Altitude Reporting Facility
EDT Latitude Longitude Course Direction KTS MPH feet Rate Location/Type
10:14PM 37.6500 -122.3667 122° Southeast 159 183 1,300  Level Northern Cal TRACON
10:15PM 37.7000 -122.3667 360° North 214 246 3,600 2,280 Climbing Northern Cal TRACON
10:16PM 37.7167 -122.4333 288° West 265 305 5,700 2,340 Climbing Northern Cal TRACON
10:17PM 37.2559 -122.0922 130° Southeast  Level FlightAware Approximate
10:17PM 37.6500 -122.4500 191° South 290 334 8,100  Level Northern Cal TRACON
10:18PM 37.1545 -121.9615 133° Southeast  Level FlightAware Approximate
10:19PM 37.0559 -121.8285 122° Southeast  Level FlightAware Approximate
10:19PM 37.5375 -122.4328 173° South 302 348 11,000  Level Oakland Center
10:20PM 37.4544 -122.3886 157° South 337 388 13,000 1,740 Climbing Oakland Center
10:21PM 37.3839 -122.3103 139° Southeast 339 390 14,600 1,680 Climbing Oakland Center
10:22PM 37.2911 -122.2072 139° Southeast 365 420 16,500 1,680 Climbing Oakland Center
10:23PM 37.2122 -122.1200 139° Southeast 374 430 18,100 1,500 Climbing Oakland Center
10:24PM 37.1325 -122.0328 139° Southeast 378 435 19,600 1,380 Climbing Oakland Center
10:25PM 37.0508 -121.9419 138° Southeast 389 448 21,000 1,200 Climbing Oakland Center
10:26PM 36.9664 -121.8511 139° Southeast 396 456 22,100 1,020 Climbing Oakland Center
10:27PM 36.8786 -121.7572 139° Southeast 415 478 23,100 960 Climbing Oakland Center
10:28PM 36.7967 -121.6667 138° Southeast 416 479 24,100 1,020 Climbing Oakland Center
10:29PM 36.6889 -121.5519 140° Southeast 425 489 25,200 840 Climbing Oakland Center
10:30PM 36.5981 -121.4556 140° Southeast 431 496 25,900 660 Climbing Oakland Center
10:31PM 36.5072 -121.3544 138° Southeast 437 503 26,600 660 Climbing Oakland Center
10:32PM 36.4156 -121.2533 138° Southeast 440 506 27,300 660 Climbing Oakland Center
10:33PM 36.3211 -121.1547 140° Southeast 443 510 28,000 660 Climbing Oakland Center
10:34PM 36.2278 -121.0536 139° Southeast 445 512 28,700 660 Climbing Oakland Center
10:35PM 36.1339 -120.9542 139° Southeast 445 512 29,400 660 Climbing Oakland Center
10:36PM 36.0403 -120.8542 139° Southeast 445 512 30,100 600 Climbing Oakland Center
10:37PM 35.9456 -120.7539 139° Southeast 447 514 30,700 540 Climbing Oakland Center
10:38PM 35.8514 -120.6544 139° Southeast 447 514 31,200 540 Climbing Oakland Center
10:39PM 35.7361 -120.5322 139° Southeast 453 521 31,800 480 Climbing Oakland Center
10:40PM 35.6394 -120.4325 140° Southeast 452 520 32,300 480 Climbing Oakland Center
10:41PM 35.5436 -120.3308 139° Southeast 451 519 32,800 300 Climbing Oakland Center
10:42PM 35.4639 -120.2483 140° Southeast 451 519 33,000 60 Climbing Oakland Center
10:43PM 35.3436 -120.1275 141° Southeast 460 529 33,000 -120 Level Los Angeles Center
10:44PM 35.2431 -120.0203 139° Southeast 465 535 32,800 -1,440 Descending Los Angeles Center
10:45PM 35.1236 -119.8975 140° Southeast 467 537 30,100 -2,640 Descending Los Angeles Center
10:46PM 35.0319 -119.7864 135° Southeast 465 535 27,400 -2,640 Descending Los Angeles Center
10:47PM 34.9522 -119.6742 131° Southeast 445 512 24,700 -2,400 Descending Los Angeles Center
10:48PM 34.8722 -119.5669 132° Southeast 433 498 22,000 -2,640 Descending Los Angeles Center
10:50PM 34.7769 -119.4417 133° Southeast 423 487 18,800 -2,880 Descending Los Angeles Center
10:51PM 34.7011 -119.3397 132° Southeast 412 474 16,100 -2,640 Descending Los Angeles Center
10:52PM 34.6169 -119.2283 133° Southeast 393 452 13,400 -2,100 Descending Los Angeles Center
10:53PM 34.5503 -119.1406 133° Southeast 358 412 11,900 -1,200 Descending Los Angeles Center
10:54PM 34.4878 -119.0564 132° Southeast 334 384 11,000 -540 Descending Los Angeles Center
10:55PM 34.4300 -118.9794 132° Southeast 311 358 10,800 -840 Descending Los Angeles Center
10:56PM 34.3742 -118.9061 133° Southeast 295 339 9,300 -1,500 Descending Los Angeles Center
10:57PM 34.3256 -118.8331 129° Southeast 277 319 7,800 -1,560 Descending Los Angeles Center
10:58PM 34.2844 -118.7594 124° Southeast 266 306 6,200 -1,740 Descending Los Angeles Center
10:59PM 34.2350 -118.6714 124° Southeast 263 303 4,300 -1,260 Descending Los Angeles Center
11:00PM 34.2028 -118.5994 118° Southeast 254 292 3,600 -720 Descending Los Angeles Center
11:00PM 34.2000 -118.5500 94° East 214 246 3,200 -540 Descending Southern California TRACON
11:01PM 34.2000 -118.4833 90° East 171 197 2,800 -660 Descending Southern California TRACON
11:02PM 34.2000 -118.4333 90° East 147 169 1,900 -900 Descending Southern California TRACON
11:03PM 34.2000 -118.4000 90° East 153 176 1,200 -600 Descending Southern California TRACON
11:04PM 34.1986 -118.3683 93° East 160 184 1,000 -360 Descending Los Angeles Center